Crookston, MN

12:44 PM CDT on April 21, 2018 (GMT -0500)
Crookston Municipal-Kirkwood

Weather History for KCKN - October, 2012

Change the Weather History Date:

Monday, October 22, 2012

  Actual Average Record
Temperature  
Mean Temperature 42 °F -  
Max Temperature 48 °F 47 °F 64 °F (1998)
Min Temperature 37 °F 31 °F 24 °F (1997)
Degree Days  
Heating Degree Days 22    
Moisture  
Dew Point 38 °F    
Average Humidity 84    
Maximum Humidity 100    
Minimum Humidity 71    
Precipitation  
Precipitation 0.01 in - - ()
Sea Level Pressure  
Sea Level Pressure 30.05 in    
Wind  
Wind Speed 7 mph (NE)    
Max Wind Speed 14 mph    
Max Gust Speed 20 mph    
Visibility 10 miles    
Events Rain    
Averages and records for this station are not official NWS values.
T = Trace of Precipitation, MM = Missing Value Source: NWS Daily Summary

Daily Weather History Graph

Daily Weather History Graph

Search for Another Location

Airport or City:

Astronomy

Oct. 22, 2012 Rise Set
Actual Time 7:56 AM CDT 6:24 PM CDT
Civil Twilight 7:25 AM CDT 6:55 PM CDT
Nautical Twilight 6:48 AM CDT 7:31 PM CDT
Astronomical Twilight 6:13 AM CDT 8:07 PM CDT
Moon 3:00 PM CDT (10/22) 12:14 AM CDT (10/22)
Length of Visible Light 11h 30m
Length of Day
10h 27m
First Quarter, 56% of the Moon is Illuminated
Oct 22
First Quarter
Oct 29
Full
Nov 6
Last Quarter
Nov 13
New
Nov 20
First Quarter

Hourly Weather History & Observations

Time (CDT) Temp. Windchill Dew Point Humidity Pressure Visibility Wind Dir Wind Speed Gust Speed Precip Events Conditions
12:14 AM 39.2 °F 35.9 °F 37.4 °F 93% 30.07 in 10.0 mi North 4.6 mph - N/A   Clear
12:55 AM 37.4 °F 33.8 °F 37.4 °F 100% 30.08 in 10.0 mi North 4.6 mph - N/A   Clear
1:34 AM 39.2 °F 35.0 °F 37.4 °F 93% 30.08 in 10.0 mi NNE 5.8 mph - N/A   Clear
1:55 AM 37.4 °F 32.8 °F 35.6 °F 93% 30.08 in 10.0 mi NNE 5.8 mph - N/A   Clear
2:14 AM 37.4 °F 33.8 °F 35.6 °F 93% 30.08 in 10.0 mi NE 4.6 mph - N/A   Clear
2:35 AM 37.4 °F 34.9 °F 35.6 °F 93% 30.08 in 10.0 mi NE 3.5 mph - N/A   Clear
2:55 AM 37.4 °F 34.9 °F 35.6 °F 93% 30.08 in 10.0 mi NE 3.5 mph - N/A   Clear
3:14 AM 39.2 °F 35.0 °F 35.6 °F 87% 30.08 in 10.0 mi NE 5.8 mph - N/A   Clear
3:55 AM 39.2 °F 37.0 °F 35.6 °F 87% 30.10 in 10.0 mi ENE 3.5 mph - N/A   Clear
4:14 AM 37.4 °F 34.9 °F 35.6 °F 93% 30.09 in 10.0 mi ENE 3.5 mph - N/A   Clear
4:35 AM 37.4 °F - 35.6 °F 93% 30.10 in 10.0 mi Calm Calm - N/A   Clear
4:55 AM 37.4 °F 34.9 °F 35.6 °F 93% 30.10 in 10.0 mi ENE 3.5 mph - N/A   Clear
5:14 AM 39.2 °F 37.0 °F 35.6 °F 87% 30.11 in 10.0 mi ENE 3.5 mph - N/A   Clear
5:35 AM 39.2 °F 37.0 °F 35.6 °F 87% 30.11 in 10.0 mi East 3.5 mph - N/A   Clear
5:55 AM 37.4 °F 34.9 °F 35.6 °F 93% 30.12 in 10.0 mi East 3.5 mph - N/A   Clear
6:14 AM 37.4 °F - 35.6 °F 93% 30.12 in 10.0 mi Calm Calm - N/A   Clear
6:35 AM 39.2 °F 35.9 °F 35.6 °F 87% 30.13 in 10.0 mi NNE 4.6 mph - N/A   Clear
6:55 AM 39.2 °F 35.9 °F 35.6 °F 87% 30.11 in 10.0 mi ENE 4.6 mph - N/A   Clear
7:14 AM 39.2 °F 35.0 °F 35.6 °F 87% 30.10 in 10.0 mi NE 5.8 mph - N/A   Clear
7:35 AM 39.2 °F 34.2 °F 35.6 °F 87% 30.11 in 10.0 mi NNE 6.9 mph - N/A   Clear
7:54 AM 37.4 °F 32.8 °F 35.6 °F 93% 30.11 in 10.0 mi NNE 5.8 mph - N/A   Scattered Clouds
8:14 AM 37.4 °F 33.8 °F 35.6 °F 93% 30.11 in 10.0 mi NNE 4.6 mph - N/A   Mostly Cloudy
8:35 AM 37.4 °F 32.8 °F 35.6 °F 93% 30.12 in 10.0 mi NNE 5.8 mph - N/A   Mostly Cloudy
8:54 AM 39.2 °F 35.0 °F 35.6 °F 87% 30.13 in 10.0 mi NNE 5.8 mph - N/A   Scattered Clouds
9:15 AM 39.2 °F 35.0 °F 35.6 °F 87% 30.12 in 10.0 mi NNE 5.8 mph - N/A   Scattered Clouds
9:34 AM 39.2 °F 34.2 °F 35.6 °F 87% 30.12 in 10.0 mi NE 6.9 mph - N/A   Clear
9:54 AM 39.2 °F 33.0 °F 37.4 °F 93% 30.12 in 10.0 mi NNE 9.2 mph - N/A   Scattered Clouds
10:15 AM 41.0 °F 34.7 °F 37.4 °F 87% 30.11 in 10.0 mi NE 10.4 mph - N/A   Scattered Clouds
10:35 AM 42.8 °F 38.0 °F 37.4 °F 81% 30.10 in 10.0 mi ENE 8.1 mph - N/A   Mostly Cloudy
10:54 AM 42.8 °F 37.5 °F 37.4 °F 81% 30.10 in 10.0 mi ENE 9.2 mph - N/A   Mostly Cloudy
11:15 AM 42.8 °F 37.5 °F 37.4 °F 81% 30.10 in 10.0 mi NE 9.2 mph - N/A   Mostly Cloudy
11:34 AM 42.8 °F 37.0 °F 37.4 °F 81% 30.10 in 10.0 mi ENE 10.4 mph - N/A   Mostly Cloudy
11:54 AM 42.8 °F 37.0 °F 37.4 °F 81% 30.10 in 10.0 mi NE 10.4 mph - N/A   Overcast
12:15 PM 44.6 °F 40.7 °F 39.2 °F 81% 30.11 in 10.0 mi ENE 6.9 mph - N/A   Mostly Cloudy
12:34 PM 44.6 °F 40.2 °F 39.2 °F 81% 30.10 in 10.0 mi ENE 8.1 mph - N/A   Scattered Clouds
12:55 PM 44.6 °F 40.2 °F 39.2 °F 81% 30.09 in 10.0 mi NE 8.1 mph - N/A   Mostly Cloudy
1:14 PM 44.6 °F 39.2 °F 39.2 °F 81% 30.07 in 10.0 mi NE 10.4 mph - N/A   Mostly Cloudy
1:34 PM 44.6 °F 40.2 °F 39.2 °F 81% 30.08 in 10.0 mi NE 8.1 mph - N/A   Mostly Cloudy
1:55 PM 46.4 °F 41.9 °F 39.2 °F 76% 30.07 in 10.0 mi NNE 9.2 mph - N/A   Mostly Cloudy
2:14 PM 46.4 °F 41.5 °F 39.2 °F 76% 30.07 in 10.0 mi NE 10.4 mph - N/A   Mostly Cloudy
2:34 PM 46.4 °F 41.1 °F 39.2 °F 76% 30.05 in 10.0 mi NE 11.5 mph - N/A   Mostly Cloudy
3:14 PM 46.4 °F 41.5 °F 41.0 °F 81% 30.04 in 10.0 mi ENE 10.4 mph - N/A   Scattered Clouds
3:34 PM 46.4 °F 41.1 °F 39.2 °F 76% 30.04 in 10.0 mi NE 11.5 mph - N/A   Scattered Clouds
3:55 PM 46.4 °F 40.7 °F 41.0 °F 81% 30.03 in 10.0 mi ENE 12.7 mph - N/A   Scattered Clouds
4:14 PM 48.2 °F - 41.0 °F 76% 30.02 in 10.0 mi ENE 12.7 mph - N/A   Scattered Clouds
4:35 PM 48.2 °F - 41.0 °F 76% 30.02 in 10.0 mi NE 12.7 mph - N/A   Clear
4:55 PM 46.4 °F 41.1 °F 42.8 °F 87% 30.01 in 10.0 mi NE 11.5 mph 16.1 mph N/A   Clear
5:14 PM 46.4 °F 40.7 °F 42.8 °F 87% 30.01 in 10.0 mi NE 12.7 mph - N/A   Clear
5:35 PM 46.4 °F 40.7 °F 42.8 °F 87% 30.00 in 10.0 mi ENE 12.7 mph 17.3 mph N/A   Clear
5:55 PM 46.4 °F 41.9 °F 42.8 °F 87% 30.00 in 10.0 mi ENE 9.2 mph - N/A   Clear
6:14 PM 46.4 °F 41.9 °F 41.0 °F 81% 30.00 in 10.0 mi ENE 9.2 mph - N/A   Clear
6:35 PM 46.4 °F 41.9 °F 42.8 °F 87% 30.00 in 10.0 mi ENE 9.2 mph - N/A   Clear
6:55 PM 46.4 °F 42.4 °F 41.0 °F 81% 30.01 in 10.0 mi ENE 8.1 mph - N/A   Clear
7:14 PM 46.4 °F 41.9 °F 41.0 °F 81% 30.00 in 10.0 mi East 9.2 mph - N/A   Clear
7:35 PM 46.4 °F 41.5 °F 41.0 °F 81% 29.99 in 10.0 mi East 10.4 mph - N/A   Clear
7:55 PM 46.4 °F 41.5 °F 41.0 °F 81% 29.99 in 10.0 mi ENE 10.4 mph - N/A   Clear
8:14 PM 46.4 °F 40.7 °F 41.0 °F 81% 29.99 in 10.0 mi East 12.7 mph - N/A   Clear
8:35 PM 46.4 °F 41.1 °F 41.0 °F 81% 29.98 in 10.0 mi East 11.5 mph 16.1 mph N/A   Clear
8:55 PM 46.4 °F 41.5 °F 41.0 °F 81% 29.97 in 10.0 mi East 10.4 mph - N/A   Clear
9:14 PM 46.4 °F 40.7 °F 39.2 °F 76% 29.97 in 10.0 mi East 12.7 mph - N/A   Scattered Clouds
9:35 PM 46.4 °F 40.7 °F 39.2 °F 76% 29.96 in 10.0 mi East 12.7 mph 19.6 mph N/A   Scattered Clouds
9:55 PM 46.4 °F 40.4 °F 39.2 °F 76% 29.95 in 10.0 mi East 13.8 mph 19.6 mph N/A   Clear
10:14 PM 46.4 °F 40.7 °F 39.2 °F 76% 29.95 in 10.0 mi East 12.7 mph - N/A   Clear
10:35 PM 46.4 °F 41.1 °F 39.2 °F 76% 29.95 in 10.0 mi East 11.5 mph - N/A   Scattered Clouds
10:54 PM 46.4 °F 41.1 °F 39.2 °F 76% 29.94 in 10.0 mi East 11.5 mph 16.1 mph N/A   Mostly Cloudy
11:14 PM 46.4 °F 41.1 °F 39.2 °F 76% 29.92 in 10.0 mi East 11.5 mph - N/A   Scattered Clouds
11:35 PM 46.4 °F 41.5 °F 37.4 °F 71% 29.93 in 10.0 mi East 10.4 mph - N/A   Mostly Cloudy
11:54 PM 46.4 °F 42.9 °F 41.0 °F 81% 29.92 in 7.0 mi ESE 6.9 mph - 0.01 in Rain Rain